Time;durP1;ratioP1;P1;durP2;ratioP2;P2;SDS_P1;SDS_P2;PMS_P1;PMS_P2;Temp;Humidity;BMP_temperature;BMP_pressure;BME280_temperature;BME280_humidity;BME280_pressure;Samples;Min_cycle;Max_cycle;Signal;HPM_P1;HPM_P2
2022/11/11 00:00:49;;;;;;;3.10;1.77;;;12.50;99.90;;;;;;5102241;28;20053;-80
2022/11/11 00:03:15;;;;;;;2.92;2.10;;;12.50;99.90;;;;;;5102300;28;20122;-80
2022/11/11 00:05:41;;;;;;;2.80;1.75;;;12.50;99.90;;;;;;5120600;28;20055;-80
2022/11/11 00:08:07;;;;;;;2.53;1.80;;;12.50;99.90;;;;;;5120475;28;20020;-79
2022/11/11 00:10:32;;;;;;;3.83;1.90;;;12.50;99.90;;;;;;5102538;28;20168;-80
2022/11/11 00:13:02;;;;;;;3.20;2.00;;;12.40;99.90;;;;;;5120430;28;20047;-79
2022/11/11 00:15:29;;;;;;;2.75;2.05;;;12.40;99.90;;;;;;5120538;28;20012;-79
2022/11/11 00:26:12;;;;;;;2.50;1.83;;;12.20;99.90;;;;;;5120349;28;20080;-79
2022/11/11 00:28:38;;;;;;;2.22;1.70;;;12.20;99.90;;;;;;5119720;28;20082;-79
2022/11/11 00:31:06;;;;;;;1.98;1.50;;;12.10;99.90;;;;;;5119902;28;20022;-79
2022/11/11 00:33:32;;;;;;;3.38;2.10;;;12.10;99.90;;;;;;5101745;28;20034;-79
2022/11/11 00:35:59;;;;;;;3.92;1.88;;;12.10;99.90;;;;;;5119743;28;20019;-79
2022/11/11 00:41:11;;;;;;;2.75;1.55;;;12.10;99.90;;;;;;5095990;28;20034;-77
2022/11/11 00:43:36;;;;;;;1.90;1.50;;;12.00;99.90;;;;;;5105964;28;20078;-77
2022/11/11 00:51:31;;;;;;;2.50;1.75;;;11.90;99.90;;;;;;5119796;28;20027;-76
2022/11/11 00:53:57;;;;;;;2.08;1.60;;;11.90;99.90;;;;;;5119746;28;20099;-77
2022/11/11 00:56:23;;;;;;;2.47;1.50;;;11.80;99.90;;;;;;5119551;28;20490;-77
2022/11/11 00:58:49;;;;;;;3.40;1.83;;;11.80;99.90;;;;;;5119695;28;20028;-77
2022/11/11 01:01:15;;;;;;;1.90;1.70;;;11.80;99.90;;;;;;5119449;28;20437;-78
2022/11/11 01:03:41;;;;;;;2.65;1.67;;;11.70;99.90;;;;;;5100855;28;20024;-77
2022/11/11 01:06:06;;;;;;;2.53;1.75;;;11.70;99.90;;;;;;5119377;28;20027;-79
2022/11/11 01:08:32;;;;;;;3.05;2.00;;;11.70;99.90;;;;;;5093859;28;20039;-80
2022/11/11 01:10:58;;;;;;;3.40;1.98;;;11.70;99.90;;;;;;5080434;28;20389;-79
2022/11/11 01:13:27;;;;;;;3.28;1.98;;;11.70;99.90;;;;;;5074560;28;20067;-79
2022/11/11 01:15:58;;;;;;;3.80;2.20;;;11.70;99.90;;;;;;5086738;28;20058;-79
2022/11/11 01:18:25;;;;;;;3.45;2.42;;;11.60;99.90;;;;;;5090881;28;20032;-79
2022/11/11 01:20:58;;;;;;;3.47;1.98;;;11.60;99.90;;;;;;5108140;28;20075;-79
2022/11/11 01:23:24;;;;;;;3.17;1.92;;;11.60;99.90;;;;;;5119170;28;20447;-79
2022/11/11 01:25:51;;;;;;;2.63;1.63;;;11.50;99.90;;;;;;5100641;28;20027;-79
2022/11/11 01:28:17;;;;;;;2.88;1.95;;;11.50;99.90;;;;;;5119003;28;20062;-79
2022/11/11 01:30:42;;;;;;;2.30;2.00;;;11.50;99.90;;;;;;5100633;28;20019;-79
2022/11/11 01:33:10;;;;;;;3.05;2.00;;;11.60;99.90;;;;;;5118839;28;20081;-80
2022/11/11 01:35:42;;;;;;;3.13;2.00;;;11.50;99.90;;;;;;5119079;28;20023;-81
2022/11/11 01:38:09;;;;;;;3.65;2.25;;;11.60;99.90;;;;;;5115324;28;20051;-81
2022/11/11 01:40:46;;;;;;;2.97;2.08;;;11.60;99.90;;;;;;5097259;28;20034;-80
2022/11/11 01:43:11;;;;;;;2.15;1.70;;;11.50;99.90;;;;;;5098280;28;20032;-80
2022/11/11 01:45:53;;;;;;;2.97;1.98;;;11.50;99.90;;;;;;5109377;28;20030;-79
2022/11/11 01:51:50;;;;;;;2.67;1.77;;;11.50;99.90;;;;;;5118685;28;20077;-79
2022/11/11 01:54:50;;;;;;;2.22;1.63;;;11.50;99.90;;;;;;5100322;28;20024;-79
2022/11/11 01:57:22;;;;;;;2.50;1.90;;;11.50;99.90;;;;;;5118506;28;20016;-79
2022/11/11 01:59:52;;;;;;;2.53;1.98;;;11.50;99.90;;;;;;5100149;28;20023;-79
2022/11/11 02:02:30;;;;;;;2.08;1.77;;;11.50;99.90;;;;;;5118386;28;20073;-79
2022/11/11 02:07:41;;;;;;;2.97;1.85;;;11.40;99.90;;;;;;5118375;28;20100;-79
2022/11/11 02:10:08;;;;;;;2.13;1.67;;;11.50;99.90;;;;;;5118290;28;20031;-79
2022/11/11 02:15:18;;;;;;;2.42;1.75;;;11.50;99.90;;;;;;5118331;28;20107;-80
2022/11/11 02:17:47;;;;;;;2.10;1.65;;;11.40;99.90;;;;;;5099678;28;20043;-78
2022/11/11 02:20:16;;;;;;;2.40;1.92;;;11.50;99.90;;;;;;5099651;28;20051;-78
2022/11/11 02:23:04;;;;;;;2.35;1.70;;;11.40;99.90;;;;;;5118183;28;20027;-78
2022/11/11 02:25:31;;;;;;;1.63;1.38;;;11.40;99.90;;;;;;5117956;28;20488;-78
2022/11/11 02:28:02;;;;;;;1.90;1.50;;;11.40;99.90;;;;;;5117919;28;20437;-78
2022/11/11 02:30:27;;;;;;;1.60;1.40;;;11.40;99.90;;;;;;5117740;28;20026;-79
2022/11/11 02:32:54;;;;;;;1.80;1.60;;;11.40;99.90;;;;;;5117842;28;20023;-80
2022/11/11 02:35:21;;;;;;;2.00;1.80;;;11.40;99.90;;;;;;5099410;28;20020;-79
2022/11/11 02:37:52;;;;;;;2.10;1.90;;;11.40;99.90;;;;;;5095082;28;20024;-79
2022/11/11 02:43:25;;;;;;;2.03;1.83;;;11.40;99.90;;;;;;5097396;28;20046;-79
2022/11/11 02:45:51;;;;;;;2.38;1.90;;;11.30;99.90;;;;;;5109606;28;20107;-78
2022/11/11 02:48:16;;;;;;;3.15;2.00;;;11.40;99.90;;;;;;5117494;28;20067;-79
2022/11/11 02:50:42;;;;;;;2.10;1.70;;;11.30;99.90;;;;;;5119894;28;20019;-79
2022/11/11 02:53:08;;;;;;;3.35;2.70;;;11.30;99.90;;;;;;5106431;28;20020;-79
2022/11/11 02:55:33;;;;;;;2.33;1.90;;;11.30;99.90;;;;;;5124339;28;20027;-78
2022/11/11 02:58:00;;;;;;;2.00;1.80;;;11.20;99.90;;;;;;5106077;28;20161;-79
2022/11/11 03:00:26;;;;;;;3.05;2.20;;;11.20;99.90;;;;;;5124571;28;20077;-79
2022/11/11 03:02:51;;;;;;;2.67;2.15;;;11.30;99.90;;;;;;5124245;28;20027;-79
2022/11/11 03:05:17;;;;;;;2.22;2.00;;;11.20;99.90;;;;;;5124489;28;20029;-79
2022/11/11 03:07:43;;;;;;;2.90;2.00;;;11.20;99.90;;;;;;5106123;28;20061;-79
2022/11/11 03:10:09;;;;;;;2.28;1.95;;;11.10;99.90;;;;;;5124520;28;20460;-79
2022/11/11 03:12:34;;;;;;;2.78;2.22;;;11.20;99.90;;;;;;5124524;28;20506;-79
2022/11/11 03:15:00;;;;;;;2.38;1.73;;;11.20;99.90;;;;;;5124251;28;20029;-81
2022/11/11 03:17:41;;;;;;;2.22;2.00;;;11.20;99.90;;;;;;5105646;28;20460;-78
2022/11/11 03:23:03;;;;;;;2.63;1.65;;;11.20;99.90;;;;;;5124485;28;20031;-78
2022/11/11 03:25:38;;;;;;;2.30;1.83;;;11.20;99.90;;;;;;5124430;28;20031;-78
2022/11/11 03:28:17;;;;;;;3.20;2.33;;;11.30;99.90;;;;;;5105974;28;20114;-79
2022/11/11 03:30:45;;;;;;;2.25;1.67;;;11.30;99.90;;;;;;5123916;28;20468;-79
2022/11/11 03:33:11;;;;;;;3.22;1.58;;;11.20;99.90;;;;;;5105892;28;20024;-79
2022/11/11 03:35:37;;;;;;;2.88;1.88;;;11.30;99.90;;;;;;5124039;28;20163;-79
2022/11/11 03:38:23;;;;;;;2.38;1.73;;;11.30;99.90;;;;;;5102656;28;20051;-78
2022/11/11 03:40:55;;;;;;;1.90;1.40;;;11.30;99.90;;;;;;5103275;28;20453;-78
2022/11/11 03:43:23;;;;;;;2.85;2.00;;;11.30;99.90;;;;;;5103330;28;20077;-78
2022/11/11 03:45:50;;;;;;;2.50;1.90;;;11.30;99.90;;;;;;5110205;28;20024;-79
2022/11/11 03:48:16;;;;;;;2.00;1.50;;;11.30;99.90;;;;;;5105402;28;20035;-79
2022/11/11 03:50:42;;;;;;;1.77;1.50;;;11.40;99.90;;;;;;5124082;28;20357;-79
2022/11/11 03:53:08;;;;;;;1.50;1.40;;;11.40;99.90;;;;;;5123904;28;20079;-79
2022/11/11 03:55:33;;;;;;;1.90;1.52;;;11.40;99.90;;;;;;5123890;28;20024;-79
2022/11/11 03:57:59;;;;;;;2.65;1.83;;;11.40;99.90;;;;;;5123964;28;20026;-79
2022/11/11 04:00:27;;;;;;;1.70;1.40;;;11.40;99.90;;;;;;5123912;28;20055;-80
2022/11/11 04:11:34;;;;;;;1.60;1.20;;;11.40;99.90;;;;;;5120490;28;20057;-79
2022/11/11 04:16:48;;;;;;;1.70;1.25;;;11.40;99.90;;;;;;5120592;28;20034;-80
2022/11/11 04:21:58;;;;;;;1.45;1.00;;;11.40;99.90;;;;;;5120695;28;20080;-80
2022/11/11 04:27:14;;;;;;;1.58;1.20;;;11.40;99.90;;;;;;5072596;28;20453;-80
2022/11/11 04:29:40;;;;;;;1.80;1.30;;;11.40;99.90;;;;;;5101677;28;20058;-80
2022/11/11 04:35:01;;;;;;;1.60;1.10;;;11.40;99.90;;;;;;5120340;28;20039;-78
2022/11/11 04:37:31;;;;;;;2.03;1.33;;;11.40;99.90;;;;;;5119971;28;20023;-79
2022/11/11 04:42:40;;;;;;;1.65;1.10;;;11.30;99.90;;;;;;5093336;28;20055;-79
2022/11/11 04:45:27;;;;;;;1.73;1.30;;;11.30;99.90;;;;;;5105906;28;20020;-78
2022/11/11 04:48:01;;;;;;;2.10;1.50;;;11.30;99.90;;;;;;5094450;28;20043;-81
2022/11/11 04:50:41;;;;;;;2.08;1.40;;;11.30;99.90;;;;;;5077788;28;20376;-81
2022/11/11 04:53:11;;;;;;;1.80;1.25;;;11.30;99.90;;;;;;5099876;28;20020;-84
2022/11/11 04:58:33;;;;;;;1.67;1.20;;;11.30;99.90;;;;;;5119670;28;20407;-82
2022/11/11 05:00:59;;;;;;;1.60;1.30;;;11.30;99.90;;;;;;5101576;28;20035;-81
2022/11/11 05:03:25;;;;;;;2.40;1.60;;;11.40;99.90;;;;;;5100764;28;20023;-81
2022/11/11 05:08:54;;;;;;;2.45;1.58;;;11.30;99.90;;;;;;5119545;28;20070;-83
2022/11/11 05:11:32;;;;;;;1.45;1.13;;;11.30;99.90;;;;;;5119259;28;20449;-81
2022/11/11 05:22:29;;;;;;;1.48;1.20;;;11.40;99.90;;;;;;5119115;28;20507;-83
2022/11/11 05:27:40;;;;;;;2.25;1.52;;;11.40;99.90;;;;;;5119036;28;20723;-78
2022/11/11 05:30:08;;;;;;;1.85;1.40;;;11.40;99.90;;;;;;5118781;28;20031;-79
2022/11/11 05:32:34;;;;;;;1.60;1.20;;;11.40;99.90;;;;;;5118871;28;20027;-80
2022/11/11 05:35:00;;;;;;;2.00;1.40;;;11.50;99.90;;;;;;5100826;28;20027;-80
2022/11/11 05:37:26;;;;;;;1.67;1.20;;;11.50;99.90;;;;;;5100471;28;20031;-80
2022/11/11 05:39:51;;;;;;;1.60;1.05;;;11.50;99.90;;;;;;5099901;28;20020;-80
2022/11/11 05:42:17;;;;;;;1.95;1.20;;;11.50;99.90;;;;;;5098157;28;20504;-79
2022/11/11 05:44:43;;;;;;;1.88;1.50;;;11.50;99.90;;;;;;5104278;28;20107;-79
2022/11/11 05:47:08;;;;;;;2.92;2.25;;;11.40;99.90;;;;;;5098052;28;20032;-80
2022/11/11 05:49:34;;;;;;;1.95;1.27;;;11.40;99.90;;;;;;5091364;28;20057;-80
2022/11/11 05:52:00;;;;;;;2.10;1.67;;;11.40;99.90;;;;;;5118258;28;20031;-80
2022/11/11 05:54:26;;;;;;;1.60;1.33;;;11.40;99.90;;;;;;5118836;28;20024;-80
2022/11/11 05:56:52;;;;;;;1.35;0.90;;;11.40;99.90;;;;;;5100317;28;20028;-80
2022/11/11 05:59:17;;;;;;;1.35;1.10;;;11.30;99.90;;;;;;5118514;28;20576;-79
2022/11/11 06:01:43;;;;;;;1.50;1.23;;;11.40;99.90;;;;;;5118258;28;20107;-82
2022/11/11 06:04:09;;;;;;;2.50;1.60;;;11.30;99.90;;;;;;5118089;28;20038;-83
2022/11/11 06:06:35;;;;;;;1.23;0.93;;;11.30;99.90;;;;;;5082359;28;20027;-83
2022/11/11 06:09:02;;;;;;;1.40;1.13;;;11.40;99.90;;;;;;5090023;28;20381;-79
2022/11/11 06:11:28;;;;;;;1.67;1.30;;;11.40;99.90;;;;;;5098359;28;20372;-79
2022/11/11 06:13:54;;;;;;;1.55;1.10;;;11.30;99.90;;;;;;5117785;28;20026;-81
2022/11/11 06:16:19;;;;;;;1.33;1.08;;;11.30;99.90;;;;;;5117933;28;20024;-80
2022/11/11 06:18:45;;;;;;;1.38;1.10;;;11.30;99.90;;;;;;5117654;28;20073;-81
2022/11/11 06:21:11;;;;;;;1.13;0.90;;;11.20;99.90;;;;;;5099912;28;20106;-81
2022/11/11 06:23:37;;;;;;;1.63;1.30;;;11.20;99.90;;;;;;5100025;28;20034;-83
2022/11/11 06:26:12;;;;;;;1.25;0.95;;;11.20;99.90;;;;;;5099641;28;20461;-84
2022/11/11 06:28:46;;;;;;;0.85;0.75;;;11.20;99.90;;;;;;5099858;28;20023;-84
2022/11/11 06:31:17;;;;;;;0.90;0.77;;;11.20;99.90;;;;;;5099364;28;20492;-84
2022/11/11 06:33:43;;;;;;;1.40;1.10;;;11.30;99.90;;;;;;5117782;28;20016;-84
2022/11/11 06:36:12;;;;;;;1.05;0.80;;;11.30;99.90;;;;;;5118028;28;20051;-83
2022/11/11 06:38:38;;;;;;;1.85;1.35;;;11.30;99.90;;;;;;5091881;28;20016;-84
2022/11/11 06:41:04;;;;;;;2.42;1.70;;;11.30;99.90;;;;;;5117762;28;20024;-84
2022/11/11 06:43:30;;;;;;;1.20;0.90;;;11.20;99.90;;;;;;5104124;28;20416;-83
2022/11/11 06:45:56;;;;;;;1.23;0.80;;;11.30;99.90;;;;;;5117816;28;20035;-83
2022/11/11 06:48:23;;;;;;;1.48;1.00;;;11.30;99.90;;;;;;5099058;28;20542;-82
2022/11/11 06:50:49;;;;;;;1.48;0.90;;;11.30;99.90;;;;;;5099745;28;20024;-81
2022/11/11 06:53:17;;;;;;;1.48;0.80;;;11.20;99.90;;;;;;5099640;28;20026;-82
2022/11/11 06:55:43;;;;;;;1.40;0.93;;;11.20;99.90;;;;;;5099423;28;20391;-81
2022/11/11 06:58:18;;;;;;;1.17;0.82;;;11.20;99.90;;;;;;5110619;28;20046;-81
2022/11/11 07:00:45;;;;;;;1.23;0.93;;;11.20;99.90;;;;;;5097408;28;20392;-80
2022/11/11 07:03:13;;;;;;;1.00;0.85;;;11.20;99.90;;;;;;5095082;28;20074;-78
2022/11/11 07:05:39;;;;;;;2.10;1.27;;;11.20;99.90;;;;;;5099616;28;20042;-78
2022/11/11 07:08:11;;;;;;;1.20;1.10;;;11.20;99.90;;;;;;5117342;28;20426;-79
2022/11/11 07:10:38;;;;;;;1.92;1.20;;;11.20;99.90;;;;;;5108404;28;20030;-80
2022/11/11 07:13:05;;;;;;;1.70;1.00;;;11.20;99.90;;;;;;5096800;28;20023;-80
2022/11/11 07:15:32;;;;;;;1.48;0.90;;;11.30;99.90;;;;;;5089556;28;20038;-82
2022/11/11 07:17:57;;;;;;;3.50;1.55;;;11.30;99.90;;;;;;5099113;28;20015;-81
2022/11/11 07:20:23;;;;;;;2.17;1.35;;;11.30;99.90;;;;;;5087435;28;20086;-80
2022/11/11 07:22:49;;;;;;;1.30;0.90;;;11.30;99.90;;;;;;5089593;28;20027;-79
2022/11/11 07:25:14;;;;;;;1.50;1.30;;;11.20;99.90;;;;;;5081435;28;20139;-82
2022/11/11 07:27:43;;;;;;;1.55;1.00;;;11.30;99.90;;;;;;5097664;28;20048;-82
2022/11/11 07:30:11;;;;;;;2.63;1.55;;;11.30;99.90;;;;;;5092832;28;20028;-82
2022/11/11 07:32:37;;;;;;;2.90;1.90;;;11.30;99.90;;;;;;5075589;28;20013;-81
2022/11/11 07:35:03;;;;;;;3.00;1.77;;;11.30;99.90;;;;;;5094990;28;20024;-81
2022/11/11 07:37:30;;;;;;;2.15;1.55;;;11.30;99.90;;;;;;5091919;28;20020;-81
2022/11/11 07:39:56;;;;;;;1.75;1.38;;;11.20;99.90;;;;;;5105084;28;20031;-80
2022/11/11 07:42:22;;;;;;;1.73;1.25;;;11.10;99.90;;;;;;5115769;28;20145;-81
2022/11/11 07:44:47;;;;;;;1.75;1.20;;;11.10;99.90;;;;;;5081196;28;20484;-79
2022/11/11 07:50:51;;;;;;;2.30;1.98;;;11.10;99.90;;;;;;5035933;28;20059;-82
2022/11/11 07:53:19;;;;;;;2.63;1.65;;;11.10;99.90;;;;;;5101100;28;20020;-82
2022/11/11 07:55:45;;;;;;;1.67;1.48;;;11.10;99.90;;;;;;5102164;28;20427;-81
2022/11/11 07:58:26;;;;;;;1.63;1.45;;;11.10;99.90;;;;;;5088590;28;20024;-83
2022/11/11 08:01:02;;;;;;;2.17;1.98;;;11.10;99.90;;;;;;5102289;28;20469;-83
2022/11/11 08:03:28;;;;;;;1.95;1.58;;;11.10;99.90;;;;;;5086108;28;20107;-82
2022/11/11 08:05:56;;;;;;;2.53;1.77;;;11.10;99.90;;;;;;5081626;28;20055;-79
2022/11/11 08:08:25;;;;;;;1.95;1.65;;;11.10;99.90;;;;;;5088480;28;20449;-81
2022/11/11 08:10:54;;;;;;;2.15;1.55;;;11.10;99.90;;;;;;5120483;28;20020;-78
2022/11/11 08:16:05;;;;;;;2.25;1.70;;;11.10;99.90;;;;;;5116984;28;20403;-76
2022/11/11 08:18:32;;;;;;;2.28;1.73;;;11.20;99.90;;;;;;5097470;28;20028;-83
2022/11/11 08:20:57;;;;;;;4.63;3.28;;;11.20;99.90;;;;;;5116122;28;20058;-71
2022/11/11 08:23:31;;;;;;;4.00;3.00;;;11.30;99.90;;;;;;5119445;28;20130;-73
2022/11/11 08:26:04;;;;;;;2.30;1.65;;;11.30;99.90;;;;;;5119416;28;20031;-73
2022/11/11 08:28:31;;;;;;;2.08;1.55;;;11.30;99.90;;;;;;5119459;28;20422;-74
2022/11/11 08:31:01;;;;;;;2.13;1.88;;;11.30;99.90;;;;;;5112704;28;20036;-73
2022/11/11 08:33:27;;;;;;;2.88;1.67;;;11.30;99.90;;;;;;5093959;28;20046;-73
2022/11/11 08:35:54;;;;;;;2.20;1.42;;;11.30;99.90;;;;;;5098319;28;20058;-72
2022/11/11 08:38:23;;;;;;;1.55;1.10;;;11.30;99.90;;;;;;5096690;28;20100;-75
2022/11/11 08:40:50;;;;;;;1.65;1.13;;;11.30;99.90;;;;;;5099042;28;20476;-74
2022/11/11 08:43:15;;;;;;;1.90;1.50;;;11.30;99.90;;;;;;5098593;28;20028;-74
2022/11/11 08:45:41;;;;;;;1.55;1.02;;;11.30;99.90;;;;;;5076746;28;20131;-74
2022/11/11 08:48:10;;;;;;;1.92;1.17;;;11.30;99.90;;;;;;5061640;28;20067;-73
2022/11/11 08:50:37;;;;;;;1.70;1.30;;;11.30;99.90;;;;;;5078113;28;20456;-75
2022/11/11 08:53:03;;;;;;;1.42;1.20;;;11.30;99.90;;;;;;5092317;28;20609;-72
2022/11/11 08:55:29;;;;;;;2.13;1.35;;;11.30;99.90;;;;;;5076834;28;20044;-75
2022/11/11 08:58:03;;;;;;;2.75;2.13;;;11.30;99.90;;;;;;5088533;28;20472;-74
2022/11/11 09:00:29;;;;;;;1.60;1.23;;;11.30;99.90;;;;;;5080057;28;20020;-76
2022/11/11 09:03:03;;;;;;;1.83;1.38;;;11.30;99.90;;;;;;5095720;28;20027;-76
2022/11/11 09:05:29;;;;;;;1.70;1.45;;;11.30;99.90;;;;;;5072409;28;20026;-70
2022/11/11 09:07:55;;;;;;;1.52;1.27;;;11.30;99.90;;;;;;5077666;28;20012;-77
2022/11/11 09:10:21;;;;;;;2.70;2.15;;;11.30;99.90;;;;;;5083681;28;20032;-75
2022/11/11 09:12:46;;;;;;;2.20;1.73;;;11.30;99.90;;;;;;5099348;28;20016;-75
2022/11/11 09:15:12;;;;;;;4.25;2.50;;;11.30;99.90;;;;;;5097028;28;20540;-74
2022/11/11 09:17:37;;;;;;;2.45;1.63;;;11.30;99.90;;;;;;5081893;28;20084;-72
2022/11/11 09:20:03;;;;;;;1.88;1.55;;;11.20;99.90;;;;;;5093917;28;20032;-80
2022/11/11 09:22:29;;;;;;;2.65;2.13;;;11.20;99.90;;;;;;5104676;28;20422;-73
2022/11/11 09:24:55;;;;;;;2.58;1.80;;;11.20;99.90;;;;;;5101449;28;20024;-71
2022/11/11 09:27:21;;;;;;;1.52;1.35;;;11.20;99.90;;;;;;5100477;28;20565;-73
2022/11/11 09:29:46;;;;;;;2.28;1.73;;;11.20;99.90;;;;;;5095999;28;20027;-72
2022/11/11 09:32:12;;;;;;;1.27;1.13;;;11.20;99.90;;;;;;5081467;28;20025;-71
2022/11/11 09:34:38;;;;;;;2.50;1.83;;;11.20;99.90;;;;;;5103445;28;20066;-71
2022/11/11 09:37:03;;;;;;;2.22;1.50;;;11.20;99.90;;;;;;5079185;28;20019;-73
2022/11/11 09:39:29;;;;;;;3.30;1.73;;;11.10;99.90;;;;;;5079940;28;20024;-73
2022/11/11 09:42:16;;;;;;;1.75;1.38;;;11.10;99.90;;;;;;5099252;28;20024;-74
2022/11/11 09:44:44;;;;;;;1.95;1.55;;;11.10;99.90;;;;;;5101906;28;20499;-74
2022/11/11 09:47:26;;;;;;;2.55;2.10;;;11.10;99.90;;;;;;5095778;28;20016;-73
2022/11/11 09:50:03;;;;;;;2.58;1.48;;;11.00;99.90;;;;;;5081450;28;20032;-73
2022/11/11 09:52:42;;;;;;;1.90;1.33;;;11.00;99.90;;;;;;5096352;28;20019;-73
2022/11/11 09:55:17;;;;;;;2.90;1.98;;;11.00;99.90;;;;;;5100529;28;20023;-73
2022/11/11 09:57:57;;;;;;;2.15;1.70;;;11.00;99.90;;;;;;5096678;28;20465;-72
2022/11/11 10:00:27;;;;;;;1.52;1.20;;;11.10;99.90;;;;;;5101999;28;20016;-73
2022/11/11 10:03:00;;;;;;;1.48;1.05;;;11.20;99.90;;;;;;5104548;28;20020;-73
2022/11/11 10:05:39;;;;;;;2.00;1.45;;;11.20;99.90;;;;;;5102025;28;20027;-73
2022/11/11 10:08:10;;;;;;;3.22;1.92;;;11.30;99.90;;;;;;5097359;28;20020;-73
2022/11/11 10:10:46;;;;;;;3.70;2.75;;;11.30;99.90;;;;;;5100030;28;20066;-73
2022/11/11 10:13:15;;;;;;;2.65;1.83;;;11.30;99.90;;;;;;5095692;28;20027;-73
2022/11/11 10:15:49;;;;;;;2.05;1.73;;;11.20;99.90;;;;;;5095598;28;20028;-73
2022/11/11 10:18:37;;;;;;;3.40;2.05;;;11.20;99.90;;;;;;5065794;28;20408;-73
2022/11/11 10:21:10;;;;;;;2.40;1.70;;;11.20;99.90;;;;;;5090282;28;20573;-73
2022/11/11 10:23:37;;;;;;;1.98;1.60;;;11.30;99.90;;;;;;5084681;28;20027;-73
2022/11/11 10:26:13;;;;;;;1.60;1.30;;;11.30;99.90;;;;;;5078472;28;20033;-73
2022/11/11 10:28:43;;;;;;;2.38;1.42;;;11.40;99.90;;;;;;5100173;28;20030;-73
2022/11/11 10:31:15;;;;;;;2.40;1.30;;;11.40;99.90;;;;;;5099401;28;20028;-73
2022/11/11 10:34:01;;;;;;;2.20;1.80;;;11.50;99.90;;;;;;5099101;28;20015;-73
2022/11/11 10:36:29;;;;;;;3.15;2.42;;;11.50;99.90;;;;;;5081449;28;20097;-73
2022/11/11 10:39:01;;;;;;;3.10;2.50;;;11.50;99.90;;;;;;5095458;28;20071;-73
2022/11/11 10:41:46;;;;;;;2.03;1.35;;;11.50;99.90;;;;;;5074916;28;20015;-73
2022/11/11 10:44:19;;;;;;;2.75;1.85;;;11.50;99.90;;;;;;5103361;28;20499;-73
2022/11/11 10:46:52;;;;;;;;;;;11.40;99.90;;;;;;5100515;28;20091;-73
2022/11/11 10:49:21;;;;;;;2.20;1.60;;;11.50;99.90;;;;;;5097822;28;19916;-73
2022/11/11 10:52:19;;;;;;;2.15;1.65;;;11.50;99.90;;;;;;5097291;28;20246;-73
2022/11/11 10:55:01;;;;;;;2.72;2.00;;;11.50;99.90;;;;;;5062871;28;20034;-73
2022/11/11 10:57:38;;;;;;;3.17;2.30;;;11.50;99.90;;;;;;5097707;28;20044;-73
2022/11/11 11:00:13;;;;;;;2.42;1.63;;;11.50;99.90;;;;;;5096691;28;20031;-73
2022/11/11 11:02:58;;;;;;;2.00;1.50;;;11.50;99.90;;;;;;5117589;28;20030;-73
2022/11/11 11:05:52;;;;;;;2.30;1.83;;;11.50;99.90;;;;;;5118168;28;20055;-73
2022/11/11 11:08:25;;;;;;;2.00;1.70;;;11.60;99.90;;;;;;5117311;28;20028;-73
2022/11/11 11:11:06;;;;;;;2.43;2.10;;;11.70;99.90;;;;;;5101508;28;20047;-73
2022/11/11 11:13:49;;;;;;;3.83;2.72;;;11.70;99.90;;;;;;5106675;28;20023;-71
2022/11/11 11:16:38;;;;;;;1.95;1.67;;;11.70;99.90;;;;;;5098000;28;20484;-71
2022/11/11 11:19:16;;;;;;;1.70;1.30;;;11.80;99.90;;;;;;5096851;28;20060;-70
2022/11/11 11:21:50;;;;;;;1.90;1.38;;;11.90;99.90;;;;;;5102749;28;20024;-70
2022/11/11 11:24:26;;;;;;;2.60;1.83;;;11.90;99.90;;;;;;5108680;28;20031;-70
2022/11/11 11:26:57;;;;;;;2.53;1.90;;;11.90;99.90;;;;;;5083530;28;20016;-71
2022/11/11 11:29:32;;;;;;;2.45;1.50;;;11.90;99.90;;;;;;5102606;28;20108;-72
2022/11/11 11:32:20;;;;;;;3.00;2.15;;;11.90;99.90;;;;;;5104290;28;20053;-72
2022/11/11 11:34:51;;;;;;;2.30;1.58;;;11.90;99.90;;;;;;5110683;28;20019;-71
2022/11/11 11:37:19;;;;;;;3.40;2.72;;;11.90;99.90;;;;;;5079846;28;20039;-70
2022/11/11 11:39:45;;;;;;;3.28;2.55;;;11.90;99.90;;;;;;5105535;28;20035;-70
2022/11/11 11:42:43;;;;;;;3.20;2.50;;;11.90;99.90;;;;;;5103815;28;20243;-70
2022/11/11 11:45:23;;;;;;;3.58;2.00;;;11.80;99.90;;;;;;5061061;28;20046;-70
2022/11/11 11:48:03;;;;;;;3.17;2.42;;;11.90;99.90;;;;;;5104057;28;20052;-70
2022/11/11 11:50:52;;;;;;;2.25;1.80;;;11.90;99.90;;;;;;5101712;28;20033;-71
2022/11/11 11:53:55;;;;;;;3.15;2.25;;;11.90;99.90;;;;;;5101086;28;20027;-71
2022/11/11 11:56:33;;;;;;;3.33;2.38;;;12.00;99.90;;;;;;5088756;28;20078;-71
2022/11/11 11:59:16;;;;;;;3.60;3.28;;;12.00;99.90;;;;;;5103099;28;20030;-71
2022/11/11 12:02:10;;;;;;;2.95;2.10;;;11.90;99.90;;;;;;5083317;28;20495;-71
2022/11/11 12:05:04;;;;;;;2.38;2.03;;;11.90;99.90;;;;;;5095757;28;20028;-70
2022/11/11 12:08:03;;;;;;;3.67;2.92;;;12.00;99.90;;;;;;5078011;28;20020;-70
2022/11/11 12:10:45;;;;;;;2.20;1.70;;;11.90;99.90;;;;;;5102351;28;20081;-70
2022/11/11 12:13:41;;;;;;;2.53;1.85;;;12.00;99.90;;;;;;5101196;28;20027;-70
2022/11/11 12:16:22;;;;;;;4.40;2.67;;;12.00;99.90;;;;;;5095649;28;20023;-70
2022/11/11 12:18:47;;;;;;;5.90;2.45;;;12.10;99.90;;;;;;5099783;28;20035;-70
2022/11/11 12:21:15;;;;;;;4.72;2.92;;;12.10;99.90;;;;;;5099784;28;20028;-70
2022/11/11 12:23:43;;;;;;;3.20;2.30;;;12.10;99.90;;;;;;5089556;28;20028;-70
2022/11/11 12:26:18;;;;;;;3.40;2.47;;;12.20;99.90;;;;;;5117842;28;20031;-70
2022/11/11 12:29:02;;;;;;;2.78;2.03;;;12.10;99.90;;;;;;5119955;28;20066;-70
2022/11/11 12:32:06;;;;;;;2.83;2.15;;;12.20;99.90;;;;;;5120153;28;20023;-70
2022/11/11 12:34:48;;;;;;;2.70;2.30;;;12.10;99.90;;;;;;5120202;28;20111;-70
2022/11/11 12:37:32;;;;;;;3.83;2.83;;;12.10;99.90;;;;;;5119979;28;20430;-70
2022/11/11 12:40:04;;;;;;;3.20;2.78;;;12.10;99.90;;;;;;5100783;28;20077;-70
2022/11/11 12:42:39;;;;;;;3.17;2.58;;;12.10;99.90;;;;;;5099609;28;20035;-70
2022/11/11 12:45:20;;;;;;;3.58;3.03;;;12.10;99.90;;;;;;5095178;28;20019;-71
2022/11/11 12:47:46;;;;;;;2.67;2.00;;;12.10;99.90;;;;;;5119665;28;20053;-70
2022/11/11 12:50:29;;;;;;;2.63;2.10;;;12.10;99.90;;;;;;5119758;28;20483;-70
2022/11/11 12:52:55;;;;;;;;;;;12.10;99.90;;;;;;5120346;28;20042;-70
2022/11/11 12:55:56;;;;;;;2.78;1.95;;;12.10;99.90;;;;;;5119513;28;20521;-70
2022/11/11 12:58:34;;;;;;;2.85;2.38;;;12.10;99.90;;;;;;5107673;28;20035;-70
2022/11/11 13:01:35;;;;;;;2.45;2.20;;;12.20;99.90;;;;;;5102778;28;20020;-70
2022/11/11 13:04:18;;;;;;;3.10;2.58;;;12.20;99.90;;;;;;5101247;28;20097;-70
2022/11/11 13:06:56;;;;;;;2.67;2.08;;;12.20;99.90;;;;;;5101290;28;20047;-70
2022/11/11 13:09:37;;;;;;;5.07;3.78;;;12.30;99.90;;;;;;5100265;28;20069;-69
2022/11/11 13:12:37;;;;;;;3.55;2.78;;;12.40;99.90;;;;;;5102180;28;20020;-69
2022/11/11 13:15:10;;;;;;;4.00;2.65;;;12.40;99.90;;;;;;5097999;28;20476;-69
2022/11/11 13:17:36;;;;;;;5.85;4.35;;;12.40;99.90;;;;;;5097139;28;20020;-70
2022/11/11 13:20:49;;;;;;;3.35;3.05;;;12.40;99.90;;;;;;5088800;28;20084;-70
2022/11/11 13:23:15;;;;;;;5.10;3.92;;;12.40;99.90;;;;;;4998238;28;20130;-70
2022/11/11 13:25:49;;;;;;;3.00;2.42;;;12.30;99.90;;;;;;4997473;28;20034;-70
2022/11/11 13:28:39;;;;;;;4.90;3.42;;;12.30;99.90;;;;;;5055508;28;20024;-70
2022/11/11 13:31:16;;;;;;;3.13;2.70;;;12.30;99.90;;;;;;5099488;28;20133;-70
2022/11/11 13:33:49;;;;;;;3.67;2.80;;;12.30;99.90;;;;;;5102579;28;20020;-70
2022/11/11 13:36:20;;;;;;;7.47;4.70;;;12.30;99.90;;;;;;5095340;28;20095;-70
2022/11/11 13:38:50;;;;;;;4.43;3.20;;;12.30;99.90;;;;;;5093543;28;20077;-70
2022/11/11 13:41:35;;;;;;;5.28;3.67;;;12.30;99.90;;;;;;5099255;28;20012;-70
2022/11/11 13:44:04;;;;;;;4.70;3.42;;;12.30;99.90;;;;;;5098905;28;20459;-70
2022/11/11 13:46:41;;;;;;;3.47;2.65;;;12.30;99.90;;;;;;5099145;28;20034;-70
2022/11/11 13:49:28;;;;;;;4.45;3.30;;;12.30;99.90;;;;;;5104367;28;20512;-70
2022/11/11 13:51:58;;;;;;;4.75;3.50;;;12.30;99.90;;;;;;5094802;28;20016;-70
2022/11/11 13:54:27;;;;;;;4.10;2.83;;;12.30;99.90;;;;;;5099980;28;20028;-70
2022/11/11 13:57:00;;;;;;;3.63;2.50;;;12.30;99.90;;;;;;5097380;28;20093;-70
2022/11/11 13:59:33;;;;;;;4.97;3.35;;;12.30;99.90;;;;;;5078202;28;20050;-70
2022/11/11 14:02:11;;;;;;;3.80;2.88;;;12.30;99.90;;;;;;5095081;28;20036;-70
2022/11/11 14:05:05;;;;;;;3.83;3.05;;;12.30;99.90;;;;;;5083703;28;20035;-70
2022/11/11 14:07:43;;;;;;;3.83;2.75;;;12.30;99.90;;;;;;5096989;28;20030;-70
2022/11/11 14:10:29;;;;;;;4.25;3.10;;;12.30;99.90;;;;;;5081596;28;20028;-71
2022/11/11 14:13:16;;;;;;;4.05;2.65;;;12.20;99.90;;;;;;5097260;28;20382;-70
2022/11/11 14:15:48;;;;;;;5.20;4.35;;;12.30;99.90;;;;;;5062502;28;20115;-70
2022/11/11 14:18:17;;;;;;;5.30;3.67;;;12.30;99.90;;;;;;5098028;28;20020;-70
2022/11/11 14:20:48;;;;;;;6.35;3.88;;;12.20;99.90;;;;;;5094345;28;20430;-70
2022/11/11 14:23:34;;;;;;;5.30;3.97;;;12.30;99.90;;;;;;5095999;28;20046;-70
2022/11/11 14:26:05;;;;;;;4.20;3.20;;;12.30;99.90;;;;;;5095054;28;20027;-70
2022/11/11 14:28:44;;;;;;;5.90;4.07;;;12.20;99.90;;;;;;5100141;28;20076;-70